Gran Canaria Car — CQYQ — position and weather

sailwx.info

Track history (hours):
 
Tides and Currents Weather Stations Pressure Air Temp Water Temp Dewpoint Dewpoint Depression Visibility Wind Speed Wind Dir Waves Ship Positions

Gran Canaria Car

Last reported at 2018-Jul-20 23:58 UTC. Time now 2018-Jul-21 22:45 UTC.
Position N 31°04' W 011°22'.

Length 130 m; draft 4.8 m.

Type: Cargo ship. MMSI: 255805896.

Date/timePositionNaut miles runAvg speedWind from/ knotsBaromVisibWave heightAir tempDewpointWater temp
2018-Jul-20 23:58N 31°04' W 011°22'512.0
2018-Jul-20 23:30N 31°00' W 011°27'612.0
2018-Jul-20 23:00N 30°56' W 011°31'611.5
2018-Jul-20 22:30N 30°51' W 011°35'611.7
2018-Jul-20 22:00N 30°47' W 011°40'611.2
2018-Jul-20 21:30N 30°42' W 011°44'611.1
2018-Jul-20 21:00N 30°38' W 011°48'611.3
2018-Jul-20 20:30N 30°34' W 011°52'2011.8
2018-Jul-20 18:47N 30°18' W 012°07'312.2
2018-Jul-20 18:31N 30°15' W 012°09'612.2
2018-Jul-20 18:00N 30°11' W 012°13'612.4
2018-Jul-20 17:31N 30°06' W 012°18'612.7
2018-Jul-20 17:00N 30°01' W 012°23'713.0
2018-Jul-20 16:30N 29°56' W 012°27'613.3
2018-Jul-20 16:01N 29°51' W 012°32'713.2
2018-Jul-20 15:30N 29°46' W 012°37'613.1
2018-Jul-20 15:01N 29°40' W 012°42'713.1
2018-Jul-20 14:31N 29°35' W 012°47'713.2
2018-Jul-20 13:59N 29°30' W 012°52'1012.9
2018-Jul-20 13:15N 29°23' W 012°59'2012.6
2018-Jul-20 11:39N 29°07' W 013°14'212.6
2018-Jul-20 11:28N 29°06' W 013°16'612.8
2018-Jul-20 11:00N 29°03' W 013°21'612.7
2018-Jul-20 10:30N 28°59' W 013°27'4 8.5
2018-Jul-20 10:00N 28°58' W 013°32'0 0.9
2018-Jul-20 09:30N 28°58' W 013°32'0 0.0
2018-Jul-20 09:00N 28°58' W 013°32'0 0.0
2018-Jul-20 08:30N 28°58' W 013°32'0 0.0
2018-Jul-20 08:00N 28°58' W 013°32'0 0.0
2018-Jul-20 07:30N 28°58' W 013°32'0 0.0
2018-Jul-20 07:00N 28°58' W 013°32'0 0.0
2018-Jul-20 06:30N 28°58' W 013°32'0 0.0
2018-Jul-20 05:59N 28°58' W 013°32'0 0.0
2018-Jul-20 05:31N 28°58' W 013°32'0 0.0
2018-Jul-20 05:00N 28°58' W 013°32'0 0.0
2018-Jul-20 04:30N 28°58' W 013°32'0 0.0
2018-Jul-20 04:01N 28°58' W 013°32'0 0.0
2018-Jul-20 03:31N 28°58' W 013°32'0 0.0
2018-Jul-20 03:01N 28°58' W 013°32'0 0.0
2018-Jul-20 02:30N 28°58' W 013°32'0 0.0
2018-Jul-20 02:01N 28°58' W 013°32'0 0.0
2018-Jul-20 01:31N 28°58' W 013°32'0 0.0
2018-Jul-20 00:56N 28°58' W 013°32'0 0.0
2018-Jul-20 00:31N 28°58' W 013°32'0 0.0
2018-Jul-20 00:00N 28°58' W 013°32'0 0.0
2018-Jul-19 23:31N 28°58' W 013°32'0 0.0
2018-Jul-19 23:00N 28°58' W 013°32'0 0.0
2018-Jul-19 22:30N 28°58' W 013°32'1 1.9
2018-Jul-19 22:00N 28°57' W 013°32'4 9.1
2018-Jul-19 21:30N 28°54' W 013°36'713.5
2018-Jul-19 20:59N 28°51' W 013°43'713.2
2018-Jul-19 20:28N 28°48' W 013°50'613.2
2018-Jul-19 20:00N 28°48' W 013°57'713.8
2018-Jul-19 19:30N 28°47' W 014°05'713.8
2018-Jul-19 19:00N 28°47' W 014°13'713.4
2018-Jul-19 18:30N 28°46' W 014°20'713.4
2018-Jul-19 17:57N 28°46' W 014°29'713.5
2018-Jul-19 17:24N 28°45' W 014°37'1313.2
2018-Jul-19 16:26N 28°44' W 014°52'613.5
2018-Jul-19 15:59N 28°43' W 014°59'613.3
2018-Jul-19 15:30N 28°43' W 015°06'713.3
2018-Jul-19 15:00N 28°43' W 015°13'1313.0
2018-Jul-19 14:00N 28°42' W 015°28'613.0
2018-Jul-19 13:30N 28°41' W 015°36'713.3
2018-Jul-19 13:00N 28°40' W 015°43'713.2
2018-Jul-19 12:28N 28°39' W 015°51'612.9
2018-Jul-19 12:00N 28°36' W 015°57'913.1
2018-Jul-19 11:20N 28°31' W 016°05'712.8
2018-Jul-19 10:48N 28°28' W 016°12'2 5.7
2018-Jul-19 10:25N 28°29' W 016°15'0 0.0
2018-Jul-19 09:58N 28°29' W 016°15'0 0.0
2018-Jul-19 08:24N 28°29' W 016°15'0 0.0
2018-Jul-19 07:51N 28°29' W 016°15'0 0.0
2018-Jul-19 07:29N 28°29' W 016°15'0 0.0
2018-Jul-19 07:00N 28°29' W 016°15'0 0.0
2018-Jul-19 06:26N 28°29' W 016°15'0 0.0
2018-Jul-19 05:55N 28°29' W 016°15'0 0.0
2018-Jul-19 05:30N 28°29' W 016°15'0 0.0
2018-Jul-19 05:01N 28°29' W 016°15'0 0.0
2018-Jul-19 04:31N 28°29' W 016°15'0 0.0
2018-Jul-19 04:01N 28°29' W 016°15'0 0.0
2018-Jul-19 03:30N 28°29' W 016°15'0 0.0
2018-Jul-19 03:00N 28°29' W 016°15'0 0.0
2018-Jul-19 02:30N 28°29' W 016°15'0 0.0
2018-Jul-19 02:00N 28°29' W 016°15'0 0.0
2018-Jul-19 01:30N 28°29' W 016°15'0 0.0
2018-Jul-19 01:01N 28°29' W 016°15'0 0.0
2018-Jul-19 00:30N 28°29' W 016°15'0 0.0
2018-Jul-19 00:01N 28°29' W 016°15'0 0.3
2018-Jul-18 23:31N 28°29' W 016°14'2 3.4
2018-Jul-18 23:01N 28°28' W 016°13'1 2.6
2018-Jul-18 22:31N 28°27' W 016°12'1 1.7
2018-Jul-18 22:00N 28°27' W 016°11'1 1.9
2018-Jul-18 21:30N 28°28' W 016°10'2 3.2
2018-Jul-18 21:01N 28°29' W 016°08'713.7
2018-Jul-18 20:30N 28°33' W 016°02'1314.1
2018-Jul-18 19:34N 28°40' W 015°49'113.7
2018-Jul-18 19:30N 28°40' W 015°48'714.0
2018-Jul-18 19:00N 28°41' W 015°41'714.3
2018-Jul-18 18:30N 28°41' W 015°32'714.3
2018-Jul-18 18:00N 28°42' W 015°24'714.1
2018-Jul-18 17:31N 28°43' W 015°16'714.0
2018-Jul-18 17:00N 28°43' W 015°08'714.1
2018-Jul-18 16:30N 28°43' W 015°00'714.0
2018-Jul-18 16:00N 28°44' W 014°52'1014.5
2018-Jul-18 15:18N 28°45' W 014°41'414.7
2018-Jul-18 15:00N 28°46' W 014°36'914.4
2018-Jul-18 14:23N 28°47' W 014°26'2814.5
2018-Jul-18 12:26N 28°48' W 013°54'611.7
2018-Jul-18 11:52N 28°46' W 013°47'614.1
2018-Jul-18 11:27N 28°40' W 013°47'46 4.4
2018-Jul-18 01:03N 27°54' W 013°48'3 8.5
2018-Jul-18 00:42N 27°51' W 013°48'3 7.1
2018-Jul-18 00:20N 27°49' W 013°50'11 8.0
2018-Jul-17 22:56N 27°49' W 014°03'5 8.0
2018-Jul-17 22:18N 27°49' W 014°08'10 8.3
2018-Jul-17 21:07N 27°49' W 014°19'1 8.9
2018-Jul-17 20:57N 27°49' W 014°21'6 8.8
2018-Jul-17 20:19N 27°49' W 014°27'4 9.0
2018-Jul-17 19:53N 27°49' W 014°32'4 8.9
2018-Jul-17 19:27N 27°49' W 014°36'4 9.0
2018-Jul-17 19:00N 27°51' W 014°40'5 9.3
2018-Jul-17 18:30N 27°54' W 014°44'5 9.6
2018-Jul-17 18:00N 27°57' W 014°48'5 9.6
2018-Jul-17 17:29N 28°00' W 014°53'5 9.6
2018-Jul-17 17:00N 28°02' W 014°57'612.2
2018-Jul-17 16:30N 28°03' W 015°04'613.1
2018-Jul-17 16:00N 28°05' W 015°11'713.8
2018-Jul-17 15:30N 28°06' W 015°19'510.4
2018-Jul-17 14:59N 28°08' W 015°25'1 1.1
2018-Jul-17 14:30N 28°09' W 015°25'0 0.0
2018-Jul-17 14:00N 28°09' W 015°25'0 0.0
2018-Jul-17 13:30N 28°09' W 015°25'0 0.0
2018-Jul-17 13:00N 28°09' W 015°25'0 0.0
2018-Jul-17 12:30N 28°09' W 015°25'0 0.0
2018-Jul-17 12:00N 28°09' W 015°25'0 0.0
2018-Jul-17 11:30N 28°09' W 015°25'0 0.0
2018-Jul-17 11:00N 28°09' W 015°25'0 0.0
2018-Jul-17 10:31N 28°09' W 015°25'0 0.0
2018-Jul-17 10:00N 28°09' W 015°25'0 0.0
2018-Jul-17 09:30N 28°09' W 015°25'0 0.0
2018-Jul-17 09:00N 28°09' W 015°25'0 0.0
2018-Jul-17 08:30N 28°09' W 015°25'0 0.0
2018-Jul-17 08:00N 28°09' W 015°25'0 0.0
2018-Jul-17 07:30N 28°09' W 015°25'0 0.0
2018-Jul-17 07:00N 28°09' W 015°25'0 0.0
2018-Jul-17 06:30N 28°09' W 015°25'0 0.0
2018-Jul-17 06:00N 28°09' W 015°25'0 0.0
2018-Jul-17 05:30N 28°09' W 015°25'0 0.0
2018-Jul-17 05:00N 28°09' W 015°25'0 0.0
2018-Jul-17 04:30N 28°09' W 015°25'0 0.0
2018-Jul-17 04:00N 28°09' W 015°25'0 0.0
2018-Jul-17 03:30N 28°09' W 015°25'0 0.0
2018-Jul-17 02:58N 28°09' W 015°25'0 0.0
2018-Jul-17 02:30N 28°09' W 015°25'0 0.0
2018-Jul-17 02:00N 28°09' W 015°25'0 0.0
2018-Jul-17 01:30N 28°09' W 015°25'0 0.0
2018-Jul-17 01:00N 28°09' W 015°25'0 0.0
2018-Jul-17 00:29N 28°09' W 015°25'0 0.0
2018-Jul-16 23:30N 28°09' W 015°25'0 0.0
2018-Jul-16 23:00N 28°09' W 015°25'0 0.0
2018-Jul-16 22:31N 28°09' W 015°25'0 0.0
2018-Jul-16 22:00N 28°09' W 015°25'0 0.0
2018-Jul-16 21:31N 28°09' W 015°25'0 0.0
2018-Jul-16 21:00N 28°09' W 015°25'0 0.0
2018-Jul-16 20:31N 28°09' W 015°25'0 0.0
2018-Jul-16 19:58N 28°09' W 015°25'0 0.0
2018-Jul-16 19:30N 28°09' W 015°25'0 0.0
2018-Jul-16 19:00N 28°09' W 015°25'0 0.0
2018-Jul-16 18:30N 28°09' W 015°25'0 0.0
2018-Jul-16 18:00N 28°09' W 015°25'0 0.0
2018-Jul-16 17:30N 28°09' W 015°25'0 0.0
2018-Jul-16 17:01N 28°09' W 015°25'0 0.0
2018-Jul-16 16:30N 28°09' W 015°25'0 0.0
2018-Jul-16 16:00N 28°09' W 015°25'0 0.0
2018-Jul-16 15:30N 28°09' W 015°25'1 2.9
2018-Jul-16 15:00N 28°07' W 015°25'5 9.2
2018-Jul-16 14:30N 28°09' W 015°20'713.4
2018-Jul-16 14:00N 28°14' W 015°15'510.1
2018-Jul-16 13:30N 28°18' W 015°11'5 9.7
2018-Jul-16 13:00N 28°22' W 015°07'510.3
2018-Jul-16 12:30N 28°27' W 015°08'510.1
2018-Jul-16 12:00N 28°32' W 015°08'510.1
2018-Jul-16 11:30N 28°37' W 015°08'5 9.9
2018-Jul-16 11:00N 28°42' W 015°07'510.3
2018-Jul-16 10:31N 28°44' W 015°02'510.3
2018-Jul-16 10:00N 28°46' W 014°57'64512.5
2018-Jul-14 06:26N 35°58' W 005°30'511.6
2018-Jul-14 05:58N 36°00' W 005°24'4 8.5
2018-Jul-14 05:30N 36°04' W 005°21'4 7.0
2018-Jul-14 04:57N 36°03' W 005°17'612.6
2018-Jul-14 04:30N 36°03' W 005°10'28211.5
2018-Jul-13 03:53N 36°42' E 000°37'614.2
2018-Jul-13 03:25N 36°43' E 000°45'614.2
2018-Jul-13 03:00N 36°44' E 000°52'713.9
2018-Jul-13 02:30N 36°45' E 001°01'713.6
2018-Jul-13 02:00N 36°45' E 001°09'713.6
2018-Jul-13 01:30N 36°46' E 001°18'913.3
2018-Jul-13 00:47N 36°47' E 001°30'413.4
2018-Jul-13 00:28N 36°48' E 001°35'613.3
2018-Jul-13 00:00N 36°49' E 001°43'713.4
2018-Jul-12 23:30N 36°50' E 001°51'813.5
2018-Jul-12 22:54N 36°50' E 002°01'614.1
2018-Jul-12 22:30N 36°51' E 002°08'714.6
2018-Jul-12 22:00N 36°51' E 002°17'714.0
2018-Jul-12 21:30N 36°52' E 002°26'715.1
2018-Jul-12 21:00N 36°53' E 002°35'815.1
2018-Jul-12 20:30N 36°54' E 002°45'713.9
2018-Jul-12 20:00N 36°55' E 002°53'611.9
2018-Jul-12 19:30N 36°52' E 003°00'612.7
2018-Jul-12 19:00N 36°48' E 003°06'1 0.0
2018-Jul-11 18:33N 36°48' E 003°05'0 0.1
2018-Jul-11 18:27N 36°48' E 003°05'0 0.0
2018-Jul-11 17:00N 36°48' E 003°05'0 0.0
2018-Jul-11 16:30N 36°48' E 003°05'0 0.0
2018-Jul-11 15:57N 36°48' E 003°05'0 0.1
2018-Jul-11 15:24N 36°48' E 003°05'0 0.1
2018-Jul-11 14:57N 36°48' E 003°05'0 0.0
2018-Jul-11 14:24N 36°48' E 003°05'0 0.0
2018-Jul-11 13:36N 36°48' E 003°05'0 0.2
2018-Jul-11 13:30N 36°48' E 003°05'0 0.1
2018-Jul-11 13:00N 36°48' E 003°05'0 0.0
2018-Jul-11 10:15N 36°48' E 003°05'0 0.0
2018-Jul-11 09:45N 36°48' E 003°05'0 0.0
2018-Jul-11 09:30N 36°48' E 003°05'0 0.0
2018-Jul-11 01:39N 36°48' E 003°05'  
Track history (hours):
 
Tides and Currents Weather Stations Pressure Air Temp Water Temp Dewpoint Dewpoint Depression Visibility Wind Speed Wind Dir Waves Ship Positions

Gran Canaria Car

Last reported at 2018-Jul-20 23:58 UTC. Time now 2018-Jul-21 22:45 UTC.
Position N 31°04' W 011°22'.

Length 130 m; draft 4.8 m.

Type: Cargo ship. MMSI: 255805896.

Date/timePositionNaut miles runAvg speedWind from/ knotsBaromVisibWave heightAir tempDewpointWater temp
2018-Jul-20 23:58N 31°04' W 011°22'512.0
2018-Jul-20 23:30N 31°00' W 011°27'612.0
2018-Jul-20 23:00N 30°56' W 011°31'611.5
2018-Jul-20 22:30N 30°51' W 011°35'611.7
2018-Jul-20 22:00N 30°47' W 011°40'611.2
2018-Jul-20 21:30N 30°42' W 011°44'611.1
2018-Jul-20 21:00N 30°38' W 011°48'611.3
2018-Jul-20 20:30N 30°34' W 011°52'2011.8
2018-Jul-20 18:47N 30°18' W 012°07'312.2
2018-Jul-20 18:31N 30°15' W 012°09'612.2
2018-Jul-20 18:00N 30°11' W 012°13'612.4
2018-Jul-20 17:31N 30°06' W 012°18'612.7
2018-Jul-20 17:00N 30°01' W 012°23'713.0
2018-Jul-20 16:30N 29°56' W 012°27'613.3
2018-Jul-20 16:01N 29°51' W 012°32'713.2
2018-Jul-20 15:30N 29°46' W 012°37'613.1
2018-Jul-20 15:01N 29°40' W 012°42'713.1
2018-Jul-20 14:31N 29°35' W 012°47'713.2
2018-Jul-20 13:59N 29°30' W 012°52'1012.9
2018-Jul-20 13:15N 29°23' W 012°59'2012.6
2018-Jul-20 11:39N 29°07' W 013°14'212.6
2018-Jul-20 11:28N 29°06' W 013°16'612.8
2018-Jul-20 11:00N 29°03' W 013°21'612.7
2018-Jul-20 10:30N 28°59' W 013°27'4 8.5
2018-Jul-20 10:00N 28°58' W 013°32'0 0.9
2018-Jul-20 09:30N 28°58' W 013°32'0 0.0
2018-Jul-20 09:00N 28°58' W 013°32'0 0.0
2018-Jul-20 08:30N 28°58' W 013°32'0 0.0
2018-Jul-20 08:00N 28°58' W 013°32'0 0.0
2018-Jul-20 07:30N 28°58' W 013°32'0 0.0
2018-Jul-20 07:00N 28°58' W 013°32'0 0.0
2018-Jul-20 06:30N 28°58' W 013°32'0 0.0
2018-Jul-20 05:59N 28°58' W 013°32'0 0.0
2018-Jul-20 05:31N 28°58' W 013°32'0 0.0
2018-Jul-20 05:00N 28°58' W 013°32'0 0.0
2018-Jul-20 04:30N 28°58' W 013°32'0 0.0
2018-Jul-20 04:01N 28°58' W 013°32'0 0.0
2018-Jul-20 03:31N 28°58' W 013°32'0 0.0
2018-Jul-20 03:01N 28°58' W 013°32'0 0.0
2018-Jul-20 02:30N 28°58' W 013°32'0 0.0
2018-Jul-20 02:01N 28°58' W 013°32'0 0.0
2018-Jul-20 01:31N 28°58' W 013°32'0 0.0
2018-Jul-20 00:56N 28°58' W 013°32'0 0.0
2018-Jul-20 00:31N 28°58' W 013°32'0 0.0
2018-Jul-20 00:00N 28°58' W 013°32'0 0.0
2018-Jul-19 23:31N 28°58' W 013°32'0 0.0
2018-Jul-19 23:00N 28°58' W 013°32'0 0.0
2018-Jul-19 22:30N 28°58' W 013°32'1 1.9
2018-Jul-19 22:00N 28°57' W 013°32'4 9.1
2018-Jul-19 21:30N 28°54' W 013°36'713.5
2018-Jul-19 20:59N 28°51' W 013°43'713.2
2018-Jul-19 20:28N 28°48' W 013°50'613.2
2018-Jul-19 20:00N 28°48' W 013°57'713.8
2018-Jul-19 19:30N 28°47' W 014°05'713.8
2018-Jul-19 19:00N 28°47' W 014°13'713.4
2018-Jul-19 18:30N 28°46' W 014°20'713.4
2018-Jul-19 17:57N 28°46' W 014°29'713.5
2018-Jul-19 17:24N 28°45' W 014°37'1313.2
2018-Jul-19 16:26N 28°44' W 014°52'613.5
2018-Jul-19 15:59N 28°43' W 014°59'613.3
2018-Jul-19 15:30N 28°43' W 015°06'713.3
2018-Jul-19 15:00N 28°43' W 015°13'1313.0
2018-Jul-19 14:00N 28°42' W 015°28'613.0
2018-Jul-19 13:30N 28°41' W 015°36'713.3
2018-Jul-19 13:00N 28°40' W 015°43'713.2
2018-Jul-19 12:28N 28°39' W 015°51'612.9
2018-Jul-19 12:00N 28°36' W 015°57'913.1
2018-Jul-19 11:20N 28°31' W 016°05'712.8
2018-Jul-19 10:48N 28°28' W 016°12'2 5.7
2018-Jul-19 10:25N 28°29' W 016°15'0 0.0
2018-Jul-19 09:58N 28°29' W 016°15'0 0.0
2018-Jul-19 08:24N 28°29' W 016°15'0 0.0
2018-Jul-19 07:51N 28°29' W 016°15'0 0.0
2018-Jul-19 07:29N 28°29' W 016°15'0 0.0
2018-Jul-19 07:00N 28°29' W 016°15'0 0.0
2018-Jul-19 06:26N 28°29' W 016°15'0 0.0
2018-Jul-19 05:55N 28°29' W 016°15'0 0.0
2018-Jul-19 05:30N 28°29' W 016°15'0 0.0
2018-Jul-19 05:01N 28°29' W 016°15'0 0.0
2018-Jul-19 04:31N 28°29' W 016°15'0 0.0
2018-Jul-19 04:01N 28°29' W 016°15'0 0.0
2018-Jul-19 03:30N 28°29' W 016°15'0 0.0
2018-Jul-19 03:00N 28°29' W 016°15'0 0.0
2018-Jul-19 02:30N 28°29' W 016°15'0 0.0
2018-Jul-19 02:00N 28°29' W 016°15'0 0.0
2018-Jul-19 01:30N 28°29' W 016°15'0 0.0
2018-Jul-19 01:01N 28°29' W 016°15'0 0.0
2018-Jul-19 00:30N 28°29' W 016°15'0 0.0
2018-Jul-19 00:01N 28°29' W 016°15'0 0.3
2018-Jul-18 23:31N 28°29' W 016°14'2 3.4
2018-Jul-18 23:01N 28°28' W 016°13'1 2.6
2018-Jul-18 22:31N 28°27' W 016°12'1 1.7
2018-Jul-18 22:00N 28°27' W 016°11'1 1.9
2018-Jul-18 21:30N 28°28' W 016°10'2 3.2
2018-Jul-18 21:01N 28°29' W 016°08'713.7
2018-Jul-18 20:30N 28°33' W 016°02'1314.1
2018-Jul-18 19:34N 28°40' W 015°49'113.7
2018-Jul-18 19:30N 28°40' W 015°48'714.0
2018-Jul-18 19:00N 28°41' W 015°41'714.3
2018-Jul-18 18:30N 28°41' W 015°32'714.3
2018-Jul-18 18:00N 28°42' W 015°24'714.1
2018-Jul-18 17:31N 28°43' W 015°16'714.0
2018-Jul-18 17:00N 28°43' W 015°08'714.1
2018-Jul-18 16:30N 28°43' W 015°00'714.0
2018-Jul-18 16:00N 28°44' W 014°52'1014.5
2018-Jul-18 15:18N 28°45' W 014°41'414.7
2018-Jul-18 15:00N 28°46' W 014°36'914.4
2018-Jul-18 14:23N 28°47' W 014°26'2814.5
2018-Jul-18 12:26N 28°48' W 013°54'611.7
2018-Jul-18 11:52N 28°46' W 013°47'614.1
2018-Jul-18 11:27N 28°40' W 013°47'46 4.4
2018-Jul-18 01:03N 27°54' W 013°48'3 8.5
2018-Jul-18 00:42N 27°51' W 013°48'3 7.1
2018-Jul-18 00:20N 27°49' W 013°50'11 8.0
2018-Jul-17 22:56N 27°49' W 014°03'5 8.0
2018-Jul-17 22:18N 27°49' W 014°08'10 8.3
2018-Jul-17 21:07N 27°49' W 014°19'1 8.9
2018-Jul-17 20:57N 27°49' W 014°21'6 8.8
2018-Jul-17 20:19N 27°49' W 014°27'4 9.0
2018-Jul-17 19:53N 27°49' W 014°32'4 8.9
2018-Jul-17 19:27N 27°49' W 014°36'4 9.0
2018-Jul-17 19:00N 27°51' W 014°40'5 9.3
2018-Jul-17 18:30N 27°54' W 014°44'5 9.6
2018-Jul-17 18:00N 27°57' W 014°48'5 9.6
2018-Jul-17 17:29N 28°00' W 014°53'5 9.6
2018-Jul-17 17:00N 28°02' W 014°57'612.2
2018-Jul-17 16:30N 28°03' W 015°04'613.1
2018-Jul-17 16:00N 28°05' W 015°11'713.8
2018-Jul-17 15:30N 28°06' W 015°19'510.4
2018-Jul-17 14:59N 28°08' W 015°25'1 1.1
2018-Jul-17 14:30N 28°09' W 015°25'0 0.0
2018-Jul-17 14:00N 28°09' W 015°25'0 0.0
2018-Jul-17 13:30N 28°09' W 015°25'0 0.0
2018-Jul-17 13:00N 28°09' W 015°25'0 0.0
2018-Jul-17 12:30N 28°09' W 015°25'0 0.0
2018-Jul-17 12:00N 28°09' W 015°25'0 0.0
2018-Jul-17 11:30N 28°09' W 015°25'0 0.0
2018-Jul-17 11:00N 28°09' W 015°25'0 0.0
2018-Jul-17 10:31N 28°09' W 015°25'0 0.0
2018-Jul-17 10:00N 28°09' W 015°25'0 0.0
2018-Jul-17 09:30N 28°09' W 015°25'0 0.0
2018-Jul-17 09:00N 28°09' W 015°25'0 0.0
2018-Jul-17 08:30N 28°09' W 015°25'0 0.0
2018-Jul-17 08:00N 28°09' W 015°25'0 0.0
2018-Jul-17 07:30N 28°09' W 015°25'0 0.0
2018-Jul-17 07:00N 28°09' W 015°25'0 0.0
2018-Jul-17 06:30N 28°09' W 015°25'0 0.0
2018-Jul-17 06:00N 28°09' W 015°25'0 0.0
2018-Jul-17 05:30N 28°09' W 015°25'0 0.0
2018-Jul-17 05:00N 28°09' W 015°25'0 0.0
2018-Jul-17 04:30N 28°09' W 015°25'0 0.0
2018-Jul-17 04:00N 28°09' W 015°25'0 0.0
2018-Jul-17 03:30N 28°09' W 015°25'0 0.0
2018-Jul-17 02:58N 28°09' W 015°25'0 0.0
2018-Jul-17 02:30N 28°09' W 015°25'0 0.0
2018-Jul-17 02:00N 28°09' W 015°25'0 0.0
2018-Jul-17 01:30N 28°09' W 015°25'0 0.0
2018-Jul-17 01:00N 28°09' W 015°25'0 0.0
2018-Jul-17 00:29N 28°09' W 015°25'0 0.0
2018-Jul-16 23:30N 28°09' W 015°25'0 0.0
2018-Jul-16 23:00N 28°09' W 015°25'0 0.0
2018-Jul-16 22:31N 28°09' W 015°25'0 0.0
2018-Jul-16 22:00N 28°09' W 015°25'0 0.0
2018-Jul-16 21:31N 28°09' W 015°25'0 0.0
2018-Jul-16 21:00N 28°09' W 015°25'0 0.0
2018-Jul-16 20:31N 28°09' W 015°25'0 0.0
2018-Jul-16 19:58N 28°09' W 015°25'0 0.0
2018-Jul-16 19:30N 28°09' W 015°25'0 0.0
2018-Jul-16 19:00N 28°09' W 015°25'0 0.0
2018-Jul-16 18:30N 28°09' W 015°25'0 0.0
2018-Jul-16 18:00N 28°09' W 015°25'0 0.0
2018-Jul-16 17:30N 28°09' W 015°25'0 0.0
2018-Jul-16 17:01N 28°09' W 015°25'0 0.0
2018-Jul-16 16:30N 28°09' W 015°25'0 0.0
2018-Jul-16 16:00N 28°09' W 015°25'0 0.0
2018-Jul-16 15:30N 28°09' W 015°25'1 2.9
2018-Jul-16 15:00N 28°07' W 015°25'5 9.2
2018-Jul-16 14:30N 28°09' W 015°20'713.4
2018-Jul-16 14:00N 28°14' W 015°15'510.1
2018-Jul-16 13:30N 28°18' W 015°11'5 9.7
2018-Jul-16 13:00N 28°22' W 015°07'510.3
2018-Jul-16 12:30N 28°27' W 015°08'510.1
2018-Jul-16 12:00N 28°32' W 015°08'510.1
2018-Jul-16 11:30N 28°37' W 015°08'5 9.9
2018-Jul-16 11:00N 28°42' W 015°07'510.3
2018-Jul-16 10:31N 28°44' W 015°02'510.3
2018-Jul-16 10:00N 28°46' W 014°57'64512.5
2018-Jul-14 06:26N 35°58' W 005°30'511.6
2018-Jul-14 05:58N 36°00' W 005°24'4 8.5
2018-Jul-14 05:30N 36°04' W 005°21'4 7.0
2018-Jul-14 04:57N 36°03' W 005°17'612.6
2018-Jul-14 04:30N 36°03' W 005°10'28211.5
2018-Jul-13 03:53N 36°42' E 000°37'614.2
2018-Jul-13 03:25N 36°43' E 000°45'614.2
2018-Jul-13 03:00N 36°44' E 000°52'713.9
2018-Jul-13 02:30N 36°45' E 001°01'713.6
2018-Jul-13 02:00N 36°45' E 001°09'713.6
2018-Jul-13 01:30N 36°46' E 001°18'913.3
2018-Jul-13 00:47N 36°47' E 001°30'413.4
2018-Jul-13 00:28N 36°48' E 001°35'613.3
2018-Jul-13 00:00N 36°49' E 001°43'713.4
2018-Jul-12 23:30N 36°50' E 001°51'813.5
2018-Jul-12 22:54N 36°50' E 002°01'614.1
2018-Jul-12 22:30N 36°51' E 002°08'714.6
2018-Jul-12 22:00N 36°51' E 002°17'714.0
2018-Jul-12 21:30N 36°52' E 002°26'715.1
2018-Jul-12 21:00N 36°53' E 002°35'815.1
2018-Jul-12 20:30N 36°54' E 002°45'713.9
2018-Jul-12 20:00N 36°55' E 002°53'611.9
2018-Jul-12 19:30N 36°52' E 003°00'612.7
2018-Jul-12 19:00N 36°48' E 003°06'1 0.0
2018-Jul-11 18:33N 36°48' E 003°05'0 0.1
2018-Jul-11 18:27N 36°48' E 003°05'0 0.0
2018-Jul-11 17:00N 36°48' E 003°05'0 0.0
2018-Jul-11 16:30N 36°48' E 003°05'0 0.0
2018-Jul-11 15:57N 36°48' E 003°05'0 0.1
2018-Jul-11 15:24N 36°48' E 003°05'0 0.1
2018-Jul-11 14:57N 36°48' E 003°05'0 0.0
2018-Jul-11 14:24N 36°48' E 003°05'0 0.0
2018-Jul-11 13:36N 36°48' E 003°05'0 0.2
2018-Jul-11 13:30N 36°48' E 003°05'0 0.1
2018-Jul-11 13:00N 36°48' E 003°05'0 0.0
2018-Jul-11 10:15N 36°48' E 003°05'0 0.0
2018-Jul-11 09:45N 36°48' E 003°05'0 0.0
2018-Jul-11 09:30N 36°48' E 003°05'0 0.0
2018-Jul-11 01:39N 36°48' E 003°05'  

Dump ship's entire track history